Time;durP1;ratioP1;P1;durP2;ratioP2;P2;SDS_P1;SDS_P2;PMS_P1;PMS_P2;Temp;Humidity;BMP_temperature;BMP_pressure;BME280_temperature;BME280_humidity;BME280_pressure;Samples;Min_cycle;Max_cycle;Signal;HPM_P1;HPM_P2
2023/06/06 00:00:09;;;;;;;6.97;3.60;;;;;;;14.96;100.00;100996.66;6241301;28;20533;-92
2023/06/06 00:03:20;;;;;;;5.28;3.47;;;;;;;14.95;100.00;100995.81;6241146;28;20041;-91
2023/06/06 00:06:24;;;;;;;6.93;3.70;;;;;;;15.00;100.00;101004.03;6233435;28;20634;-92
2023/06/06 00:09:26;;;;;;;7.28;3.53;;;;;;;14.99;100.00;100999.78;6235877;28;20045;-92
2023/06/06 00:12:28;;;;;;;6.85;3.58;;;;;;;14.93;100.00;100989.94;6245789;28;20573;-92
2023/06/06 00:15:31;;;;;;;6.45;3.42;;;;;;;14.90;100.00;101002.41;6237575;28;20704;-92
2023/06/06 00:18:33;;;;;;;4.70;3.20;;;;;;;14.85;100.00;101006.22;6229059;28;20051;-92
2023/06/06 00:21:35;;;;;;;5.10;3.13;;;;;;;14.75;100.00;100997.59;6243565;28;20067;-92
2023/06/06 00:24:37;;;;;;;4.75;3.28;;;;;;;14.77;100.00;101000.88;6244188;28;20087;-92
2023/06/06 00:27:39;;;;;;;4.32;3.30;;;;;;;14.76;100.00;100995.84;6243487;28;20034;-91
2023/06/06 00:30:42;;;;;;;6.68;3.25;;;;;;;14.70;100.00;101001.56;6244091;28;20037;-92
2023/06/06 00:33:44;;;;;;;5.53;3.25;;;;;;;14.64;100.00;101002.94;6239927;28;20120;-92
2023/06/06 00:36:46;;;;;;;5.55;3.65;;;;;;;14.59;100.00;100999.94;6241476;28;20048;-92
2023/06/06 00:39:49;;;;;;;5.00;3.30;;;;;;;14.56;100.00;100995.00;6239433;28;20053;-92
2023/06/06 00:42:52;;;;;;;5.63;3.50;;;;;;;14.55;100.00;100994.16;6239346;28;20281;-91
2023/06/06 00:45:55;;;;;;;5.95;3.92;;;;;;;14.51;100.00;101003.19;6247825;28;20037;-92
2023/06/06 00:48:58;;;;;;;4.00;3.28;;;;;;;14.47;100.00;101003.59;6241442;28;20041;-91
2023/06/06 00:52:04;;;;;;;5.85;3.25;;;;;;;14.38;100.00;101002.59;6254233;28;20051;-92
2023/06/06 00:55:07;;;;;;;5.35;3.35;;;;;;;14.31;100.00;101004.94;6247813;28;20176;-92
2023/06/06 00:58:12;;;;;;;5.30;3.53;;;;;;;14.27;100.00;101007.94;6234401;28;20901;-92
2023/06/06 01:01:16;;;;;;;6.68;3.50;;;;;;;14.26;100.00;101004.50;6241404;28;20045;-92
2023/06/06 01:04:20;;;;;;;7.72;3.55;;;;;;;14.25;100.00;101002.84;6240524;28;20169;-91
2023/06/06 01:07:24;;;;;;;6.25;3.80;;;;;;;14.22;100.00;101008.31;6243642;28;20048;-91
2023/06/06 01:10:28;;;;;;;5.03;3.45;;;;;;;14.17;100.00;101011.31;6247872;28;20041;-92
2023/06/06 01:13:45;;;;;;;5.63;4.45;;;;;;;14.10;100.00;101005.00;6234381;28;20042;-92
2023/06/06 01:16:52;;;;;;;8.02;3.35;;;;;;;14.05;100.00;100998.53;6225263;28;20139;-92
2023/06/06 01:19:56;;;;;;;7.05;3.78;;;;;;;13.98;100.00;100999.06;6207615;28;20076;-92
2023/06/06 01:22:59;;;;;;;5.53;3.63;;;;;;;13.92;100.00;101002.19;6220541;28;20131;-92
2023/06/06 01:26:04;;;;;;;6.53;4.00;;;;;;;13.86;100.00;100992.28;6250158;28;20044;-91
2023/06/06 01:29:06;;;;;;;5.28;3.88;;;;;;;13.82;100.00;101001.34;6238726;28;20049;-92
2023/06/06 01:32:20;;;;;;;5.15;3.83;;;;;;;13.78;100.00;100998.16;6247637;28;20173;-92
2023/06/06 01:35:42;;;;;;;7.25;3.63;;;;;;;13.71;100.00;100991.84;6224225;28;20049;-92
2023/06/06 01:39:03;;;;;;;8.88;4.25;;;;;;;13.67;100.00;100997.44;6250354;28;20041;-92
2023/06/06 01:42:06;;;;;;;4.60;3.60;;;;;;;13.63;100.00;101001.25;6249814;28;20147;-92
2023/06/06 01:45:10;;;;;;;4.50;3.70;;;;;;;13.56;100.00;100993.97;6246670;28;20053;-92
2023/06/06 01:48:13;;;;;;;7.30;4.20;;;;;;;13.55;100.00;100994.91;6251717;28;20428;-92
2023/06/06 01:51:15;;;;;;;5.65;4.15;;;;;;;13.57;100.00;100990.41;6252348;28;20037;-92
2023/06/06 01:54:17;;;;;;;6.38;4.32;;;;;;;13.56;100.00;100996.56;6252820;28;20056;-92
2023/06/06 01:57:18;;;;;;;5.65;4.28;;;;;;;13.56;100.00;100998.31;6247195;28;20043;-92
2023/06/06 02:00:21;;;;;;;8.95;4.65;;;;;;;13.52;100.00;100995.16;6247096;28;20485;-92
2023/06/06 02:03:23;;;;;;;6.57;4.78;;;;;;;13.49;100.00;101004.97;6246286;28;20404;-92
2023/06/06 02:06:25;;;;;;;5.57;4.25;;;;;;;13.45;100.00;100991.44;6245541;28;20045;-91
2023/06/06 02:09:27;;;;;;;6.30;3.95;;;;;;;13.42;100.00;100983.88;6255062;28;20046;-92
2023/06/06 02:12:30;;;;;;;5.45;4.30;;;;;;;13.34;100.00;100994.09;6232159;28;20083;-92
2023/06/06 02:15:32;;;;;;;6.60;4.35;;;;;;;13.30;100.00;101000.50;6248140;28;20491;-91
2023/06/06 02:18:33;;;;;;;5.32;4.05;;;;;;;13.28;100.00;100990.22;6253067;28;20060;-92
2023/06/06 02:21:36;;;;;;;7.10;4.10;;;;;;;13.32;100.00;100996.81;6262330;28;20661;-92
2023/06/06 02:24:40;;;;;;;6.15;4.40;;;;;;;13.29;100.00;101001.44;6252535;28;20651;-91
2023/06/06 02:27:47;;;;;;;6.93;4.45;;;;;;;13.22;100.00;100997.69;6256489;28;20605;-92
2023/06/06 02:30:51;;;;;;;6.32;4.32;;;;;;;13.19;100.00;100992.72;6251293;28;20041;-92
2023/06/06 02:33:53;;;;;;;7.05;4.53;;;;;;;13.12;100.00;100993.25;6257847;28;20054;-91
2023/06/06 02:36:59;;;;;;;6.20;4.68;;;;;;;13.08;100.00;100991.84;6254733;28;20076;-92
2023/06/06 02:40:08;;;;;;;6.55;4.38;;;;;;;13.12;100.00;100997.63;6240080;28;20123;-92
2023/06/06 02:43:12;;;;;;;8.07;4.60;;;;;;;13.11;100.00;101001.16;6238237;28;20041;-92
2023/06/06 02:46:14;;;;;;;5.18;4.47;;;;;;;13.09;100.00;101003.91;6255660;28;20045;-91
2023/06/06 02:49:16;;;;;;;7.65;4.70;;;;;;;13.05;100.00;100999.91;6250891;28;20051;-92
2023/06/06 02:52:20;;;;;;;10.98;4.65;;;;;;;13.10;100.00;101004.72;6260066;28;20040;-91
2023/06/06 02:55:22;;;;;;;8.70;5.20;;;;;;;13.06;100.00;100995.50;6250672;28;20053;-92
2023/06/06 02:58:29;;;;;;;8.38;4.88;;;;;;;13.04;100.00;100994.81;6252837;28;20581;-92
2023/06/06 03:01:31;;;;;;;6.65;4.60;;;;;;;12.98;100.00;100998.75;6251291;28;20538;-91
2023/06/06 03:04:33;;;;;;;6.00;4.40;;;;;;;12.98;100.00;101006.53;6269557;28;20128;-91
2023/06/06 03:07:37;;;;;;;7.97;4.65;;;;;;;12.97;100.00;101004.06;6241644;28;20410;-92
2023/06/06 03:10:39;;;;;;;7.05;4.90;;;;;;;12.92;100.00;100997.47;6261895;28;20045;-92
2023/06/06 03:13:44;;;;;;;7.60;5.18;;;;;;;12.88;100.00;101000.44;6237877;28;20048;-92
2023/06/06 03:16:51;;;;;;;10.05;5.85;;;;;;;12.90;100.00;100999.38;6240349;28;20722;-92
2023/06/06 03:19:55;;;;;;;9.63;5.38;;;;;;;12.91;100.00;101000.19;6267765;28;20132;-92
2023/06/06 03:22:59;;;;;;;9.20;5.65;;;;;;;12.88;100.00;100993.47;6253341;28;20048;-92
2023/06/06 03:26:01;;;;;;;9.80;5.25;;;;;;;12.89;100.00;100997.72;6238485;28;20057;-92
2023/06/06 03:29:03;;;;;;;7.10;5.00;;;;;;;12.86;100.00;101005.75;6252714;28;20043;-92
2023/06/06 03:32:09;;;;;;;7.50;5.10;;;;;;;12.83;100.00;101010.38;6251657;28;20045;-92
2023/06/06 03:35:14;;;;;;;7.72;5.45;;;;;;;12.80;100.00;101011.47;6249067;28;20727;-91
2023/06/06 03:38:17;;;;;;;10.82;5.30;;;;;;;12.77;100.00;100992.69;6248652;28;20135;-91
2023/06/06 03:41:19;;;;;;;7.90;5.38;;;;;;;12.77;100.00;101003.91;6243665;28;20519;-92
2023/06/06 03:44:22;;;;;;;7.15;4.95;;;;;;;12.79;100.00;101007.19;6249054;28;20041;-92
2023/06/06 03:47:24;;;;;;;6.78;4.90;;;;;;;12.83;100.00;101016.41;6250400;28;20045;-92
2023/06/06 03:50:26;;;;;;;9.35;5.13;;;;;;;12.86;100.00;101004.94;6244568;28;20054;-92
2023/06/06 03:53:28;;;;;;;9.07;5.40;;;;;;;12.81;100.00;101009.69;6245045;28;20045;-92
2023/06/06 03:56:30;;;;;;;6.78;4.80;;;;;;;12.78;100.00;101008.16;6246397;28;20044;-91
2023/06/06 03:59:32;;;;;;;9.15;5.30;;;;;;;12.82;100.00;101000.94;6250844;28;20048;-92
2023/06/06 04:02:36;;;;;;;8.30;6.05;;;;;;;12.77;100.00;101006.50;6252559;28;20041;-92
2023/06/06 04:05:39;;;;;;;8.75;5.53;;;;;;;12.84;100.00;101006.81;6266133;28;20048;-92
2023/06/06 04:08:41;;;;;;;8.65;5.25;;;;;;;12.85;100.00;101003.28;6263477;28;20045;-91
2023/06/06 04:11:43;;;;;;;9.02;5.63;;;;;;;12.89;100.00;101008.13;6252176;28;20094;-92
2023/06/06 04:14:47;;;;;;;8.65;5.65;;;;;;;12.91;100.00;101010.59;6252994;28;20034;-92
2023/06/06 04:17:49;;;;;;;7.28;5.47;;;;;;;12.87;100.00;101007.41;6253890;28;20048;-92
2023/06/06 04:20:52;;;;;;;8.32;5.50;;;;;;;12.91;100.00;101005.38;6226413;28;20037;-92
2023/06/06 04:23:54;;;;;;;10.18;5.93;;;;;;;12.89;100.00;101015.06;6246888;28;20045;-92
2023/06/06 04:27:01;;;;;;;8.65;5.55;;;;;;;12.93;100.00;101016.47;6246280;28;20052;-92
2023/06/06 04:30:09;;;;;;;8.55;5.80;;;;;;;12.89;100.00;101013.31;6253909;28;20045;-92
2023/06/06 04:33:10;;;;;;;7.85;6.10;;;;;;;12.90;100.00;101014.13;6254181;28;20510;-92
2023/06/06 04:36:13;;;;;;;7.50;5.45;;;;;;;12.92;100.00;101030.44;6251822;28;20048;-92
2023/06/06 04:39:16;;;;;;;10.18;6.13;;;;;;;12.93;100.00;101019.09;6252248;28;20033;-92
2023/06/06 04:42:32;;;;;;;9.52;5.68;;;;;;;12.93;100.00;101014.69;6243796;28;20085;-92
2023/06/06 04:45:38;;;;;;;9.73;5.68;;;;;;;12.92;100.00;101013.06;6243031;28;20045;-92
2023/06/06 04:48:39;;;;;;;9.40;5.68;;;;;;;12.90;100.00;101027.13;6249872;28;20032;-92
2023/06/06 04:51:43;;;;;;;12.98;6.50;;;;;;;12.92;100.00;101033.03;6252263;28;20163;-92
2023/06/06 04:54:51;;;;;;;12.63;5.70;;;;;;;12.89;100.00;101023.72;6249523;28;20033;-92
2023/06/06 04:57:52;;;;;;;11.65;6.32;;;;;;;12.84;100.00;101025.00;6250058;28;20101;-92
2023/06/06 05:00:57;;;;;;;11.93;5.93;;;;;;;12.84;100.00;101025.84;6241909;28;20376;-92
2023/06/06 05:03:59;;;;;;;8.40;6.13;;;;;;;12.81;100.00;101020.06;6233222;28;20068;-92
2023/06/06 05:07:05;;;;;;;10.88;6.10;;;;;;;12.78;100.00;101015.13;6251336;28;20036;-92
2023/06/06 05:10:10;;;;;;;11.13;6.43;;;;;;;12.79;100.00;101016.75;6230898;28;20188;-92
2023/06/06 05:13:12;;;;;;;11.93;6.05;;;;;;;12.78;100.00;101018.53;6246638;28;20578;-92
2023/06/06 05:16:14;;;;;;;9.32;5.88;;;;;;;12.75;100.00;101036.16;6251255;28;20144;-92
2023/06/06 05:19:16;;;;;;;8.00;5.85;;;;;;;12.77;100.00;101029.91;6256325;28;20633;-92
2023/06/06 05:22:18;;;;;;;10.13;6.70;;;;;;;12.85;100.00;101032.69;6246929;28;20127;-92
2023/06/06 05:25:20;;;;;;;9.63;6.32;;;;;;;12.83;100.00;101032.00;6243507;28;20049;-92
2023/06/06 05:28:28;;;;;;;8.95;5.93;;;;;;;12.95;100.00;101035.38;6252001;28;20067;-92
2023/06/06 05:31:33;;;;;;;9.45;6.30;;;;;;;13.17;100.00;101033.63;6233135;28;20052;-92
2023/06/06 05:34:35;;;;;;;11.15;6.40;;;;;;;13.39;100.00;101030.09;6205257;28;20063;-92
2023/06/06 05:37:37;;;;;;;11.25;6.97;;;;;;;13.61;100.00;101029.97;6245751;28;20501;-93
2023/06/06 05:40:39;;;;;;;9.57;6.30;;;;;;;13.80;100.00;101024.06;6248689;28;20052;-93
2023/06/06 05:43:45;;;;;;;11.93;6.45;;;;;;;14.03;100.00;101029.91;6254184;28;20109;-93
2023/06/06 05:46:48;;;;;;;10.73;6.78;;;;;;;14.20;100.00;101034.47;6240924;28;20120;-92
2023/06/06 05:49:50;;;;;;;9.20;6.40;;;;;;;14.43;100.00;101026.44;6255393;28;20047;-93
2023/06/06 05:52:52;;;;;;;9.75;6.13;;;;;;;14.74;100.00;101024.63;6241834;28;20073;-92
2023/06/06 05:55:54;;;;;;;11.13;6.30;;;;;;;14.95;100.00;101034.09;6250085;28;20045;-92
2023/06/06 05:58:56;;;;;;;9.93;5.50;;;;;;;15.04;100.00;101038.50;6244034;28;20474;-93
2023/06/06 06:02:07;;;;;;;9.73;6.53;;;;;;;15.04;100.00;101036.69;6237538;28;20037;-93
2023/06/06 06:05:09;;;;;;;10.05;5.68;;;;;;;14.95;100.00;101027.09;6236675;28;20076;-92
2023/06/06 06:08:11;;;;;;;9.07;6.13;;;;;;;14.84;100.00;101029.84;6252133;28;20073;-93
2023/06/06 06:11:13;;;;;;;9.90;6.43;;;;;;;14.71;100.00;101029.25;6245566;28;20514;-93
2023/06/06 06:14:15;;;;;;;8.10;6.10;;;;;;;14.65;100.00;101035.84;6235457;28;20044;-93
2023/06/06 06:17:20;;;;;;;10.98;6.30;;;;;;;14.55;100.00;101042.84;6250512;28;20048;-92
2023/06/06 06:20:22;;;;;;;9.20;6.68;;;;;;;14.54;100.00;101038.59;6262167;28;20420;-92
2023/06/06 06:23:25;;;;;;;9.73;6.65;;;;;;;14.66;100.00;101042.72;6254439;28;20045;-93
2023/06/06 06:26:27;;;;;;;9.30;6.05;;;;;;;14.78;100.00;101035.59;6253859;28;20082;-93
2023/06/06 06:29:29;;;;;;;10.38;6.35;;;;;;;14.91;100.00;101035.34;6257304;28;20048;-93
2023/06/06 06:32:38;;;;;;;10.90;6.00;;;;;;;15.03;100.00;101035.06;6256668;28;20040;-92
2023/06/06 06:35:43;;;;;;;9.55;6.18;;;;;;;15.18;100.00;101038.06;6246339;28;20829;-92
2023/06/06 06:38:45;;;;;;;13.15;6.72;;;;;;;15.33;100.00;101037.63;6253028;28;20124;-92
2023/06/06 06:41:48;;;;;;;8.30;6.20;;;;;;;15.43;100.00;101041.06;6257277;28;20041;-92
2023/06/06 06:44:51;;;;;;;9.77;6.10;;;;;;;15.44;100.00;101038.31;6216343;28;20051;-92
2023/06/06 06:47:53;;;;;;;12.95;6.15;;;;;;;15.49;100.00;101040.50;6234481;28;20356;-92
2023/06/06 06:50:55;;;;;;;10.90;6.35;;;;;;;15.51;100.00;101041.19;6237557;28;20503;-92
2023/06/06 06:53:57;;;;;;;10.65;5.97;;;;;;;15.58;100.00;101046.69;6252222;28;20829;-92
2023/06/06 06:56:59;;;;;;;8.38;5.50;;;;;;;15.64;100.00;101039.09;6242575;28;20415;-92
2023/06/06 07:00:15;;;;;;;9.40;5.85;;;;;;;15.70;100.00;101050.75;6248125;28;20052;-92
2023/06/06 07:03:20;;;;;;;9.38;5.80;;;;;;;15.71;100.00;101044.59;6252680;28;20044;-92
2023/06/06 07:06:27;;;;;;;11.00;5.40;;;;;;;15.61;100.00;101049.81;6272597;28;20139;-92
2023/06/06 07:09:31;;;;;;;7.72;5.95;;;;;;;15.55;100.00;101045.13;6257873;28;20048;-92
2023/06/06 07:12:33;;;;;;;9.82;5.85;;;;;;;15.62;100.00;101040.19;6246184;28;20136;-91
2023/06/06 07:15:37;;;;;;;9.55;5.85;;;;;;;15.67;100.00;101054.44;6250821;28;20052;-93
2023/06/06 07:18:40;;;;;;;8.13;5.97;;;;;;;15.74;100.00;101059.16;6248219;28;20063;-92
2023/06/06 07:21:42;;;;;;;10.20;6.30;;;;;;;15.92;100.00;101067.88;6245834;28;20048;-92
2023/06/06 07:24:45;;;;;;;10.27;6.85;;;;;;;16.17;100.00;101066.41;6252929;28;20127;-92
2023/06/06 07:27:50;;;;;;;12.27;6.65;;;;;;;16.31;100.00;101060.72;6240330;28;20267;-92
2023/06/06 07:30:52;;;;;;;9.30;6.55;;;;;;;16.50;100.00;101051.13;6233120;28;20037;-92
2023/06/06 07:33:55;;;;;;;12.20;6.30;;;;;;;16.66;100.00;101045.25;6240981;28;20052;-92
2023/06/06 07:36:58;;;;;;;11.32;6.68;;;;;;;16.64;100.00;101039.34;6252654;28;20116;-92
2023/06/06 07:40:03;;;;;;;11.18;6.30;;;;;;;16.68;100.00;101041.50;6243602;28;20044;-92
2023/06/06 07:43:05;;;;;;;9.73;6.55;;;;;;;16.71;100.00;101035.16;6244752;28;20053;-92
2023/06/06 07:46:07;;;;;;;13.00;5.65;;;;;;;16.77;100.00;101045.03;6250617;28;20048;-92
2023/06/06 07:49:09;;;;;;;9.75;5.90;;;;;;;16.87;100.00;101037.13;6245586;28;20045;-92
2023/06/06 07:52:11;;;;;;;7.57;5.60;;;;;;;17.01;100.00;101039.22;6253660;28;20033;-92
2023/06/06 07:55:13;;;;;;;7.90;5.60;;;;;;;17.21;100.00;101032.03;6254431;28;20037;-92
2023/06/06 07:58:15;;;;;;;6.72;4.90;;;;;;;17.46;100.00;101046.09;6247707;28;20398;-92
2023/06/06 08:01:21;;;;;;;9.60;5.32;;;;;;;17.78;100.00;101048.09;6254690;28;20551;-92
2023/06/06 08:04:23;;;;;;;7.63;4.88;;;;;;;17.99;100.00;101046.94;6241129;28;20052;-92
2023/06/06 08:07:25;;;;;;;7.05;5.30;;;;;;;18.14;100.00;101042.75;6253470;28;20814;-92
2023/06/06 08:10:28;;;;;;;9.27;5.13;;;;;;;18.29;100.00;101043.78;6251710;28;20103;-93
2023/06/06 08:13:30;;;;;;;8.30;4.55;;;;;;;18.50;100.00;101040.72;6262360;28;20479;-92
2023/06/06 08:16:32;;;;;;;5.88;4.60;;;;;;;18.73;100.00;101045.34;6246177;28;20854;-92
2023/06/06 08:19:34;;;;;;;9.93;4.45;;;;;;;18.97;100.00;101041.16;6246775;28;20037;-92
2023/06/06 08:22:37;;;;;;;10.02;5.80;;;;;;;19.17;100.00;101037.22;6247324;28;20028;-92
2023/06/06 08:25:39;;;;;;;9.07;5.38;;;;;;;19.31;100.00;101041.78;6251684;28;20103;-92
2023/06/06 08:28:43;;;;;;;9.18;5.15;;;;;;;19.45;100.00;101035.06;6253321;28;20040;-93
2023/06/06 08:31:46;;;;;;;11.27;4.82;;;;;;;19.58;100.00;101045.84;6249037;28;20067;-93
2023/06/06 08:34:48;;;;;;;7.60;4.45;;;;;;;19.72;100.00;101049.63;6250187;28;20158;-92
2023/06/06 08:37:52;;;;;;;6.28;3.40;;;;;;;19.81;100.00;101045.19;6254722;28;20372;-93
2023/06/06 08:40:57;;;;;;;8.20;3.50;;;;;;;19.92;100.00;101043.97;6251538;28;20037;-92
2023/06/06 08:44:02;;;;;;;8.98;3.30;;;;;;;19.99;100.00;101048.38;6234661;28;20049;-92
2023/06/06 08:47:08;;;;;;;7.22;3.15;;;;;;;20.20;100.00;101045.19;6238499;28;20056;-92
2023/06/06 08:50:11;;;;;;;4.05;3.40;;;;;;;20.36;100.00;101039.03;6239117;28;20447;-92
2023/06/06 08:53:14;;;;;;;8.07;2.95;;;;;;;20.57;100.00;101037.63;6240477;28;20056;-92
2023/06/06 08:56:16;;;;;;;5.13;3.13;;;;;;;20.76;100.00;101037.16;6246613;28;20076;-92
2023/06/06 08:59:18;;;;;;;6.55;3.38;;;;;;;21.01;100.00;101039.59;6263884;28;20522;-92
2023/06/06 09:02:22;;;;;;;6.30;3.67;;;;;;;21.23;100.00;101045.84;6249182;28;20697;-91
2023/06/06 09:05:24;;;;;;;4.32;3.08;;;;;;;21.43;100.00;101041.72;6251327;28;20487;-91
2023/06/06 09:08:28;;;;;;;5.78;3.03;;;;;;;21.71;100.00;101041.94;6238734;28;20103;-92
2023/06/06 09:11:30;;;;;;;6.80;3.45;;;;;;;21.92;100.00;101043.03;6238898;28;20045;-91
2023/06/06 09:14:32;;;;;;;5.78;3.85;;;;;;;22.12;100.00;101049.34;6243163;28;20050;-91
2023/06/06 09:17:43;;;;;;;5.82;3.10;;;;;;;22.24;100.00;101046.28;6252839;28;20037;-91
2023/06/06 09:20:51;;;;;;;7.63;3.75;;;;;;;22.30;100.00;101038.44;6246368;28;20041;-91
2023/06/06 09:23:54;;;;;;;5.20;3.20;;;;;;;22.40;100.00;101042.59;6249526;28;20439;-91
2023/06/06 09:26:56;;;;;;;4.20;3.13;;;;;;;22.38;100.00;101040.13;6246515;28;20263;-91
2023/06/06 09:29:58;;;;;;;7.03;3.30;;;;;;;22.35;100.00;101037.88;6246246;28;20040;-91
2023/06/06 09:33:02;;;;;;;3.78;3.08;;;;;;;22.43;100.00;101043.03;6242317;28;20135;-90
2023/06/06 09:36:07;;;;;;;7.22;3.72;;;;;;;22.62;100.00;101044.25;6239952;28;20041;-91
2023/06/06 09:39:14;;;;;;;4.95;2.88;;;;;;;22.81;100.00;101042.81;6239719;28;20343;-91
2023/06/06 09:42:16;;;;;;;5.07;3.55;;;;;;;22.90;100.00;101043.50;6267765;28;20075;-91
2023/06/06 09:45:20;;;;;;;9.55;3.28;;;;;;;22.97;100.00;101045.22;6245255;28;20045;-91
2023/06/06 09:48:23;;;;;;;5.65;2.85;;;;;;;23.12;100.00;101036.41;6247209;28;20328;-91
2023/06/06 09:51:28;;;;;;;4.63;3.00;;;;;;;23.41;100.00;101045.97;6270179;28;20048;-91
2023/06/06 09:54:31;;;;;;;6.25;3.55;;;;;;;23.83;100.00;101047.66;6251189;28;20074;-91
2023/06/06 09:57:40;;;;;;;5.88;3.00;;;;;;;23.94;100.00;101045.47;6245299;28;20052;-91
2023/06/06 10:00:47;;;;;;;7.72;3.28;;;;;;;23.85;100.00;101040.38;6255195;28;20112;-93
2023/06/06 10:03:50;;;;;;;4.68;3.35;;;;;;;23.64;100.00;101041.22;6242016;28;20048;-91
2023/06/06 10:06:57;;;;;;;4.45;3.25;;;;;;;23.36;96.95;101041.25;6251535;28;20194;-91
2023/06/06 10:09:59;;;;;;;5.25;2.92;;;;;;;23.08;100.00;101037.78;6250038;28;20032;-91
2023/06/06 10:13:02;;;;;;;5.00;3.30;;;;;;;22.97;100.00;101050.50;6253756;28;20072;-90
2023/06/06 10:16:08;;;;;;;5.40;3.20;;;;;;;23.04;100.00;101044.47;6259339;28;20970;-91
2023/06/06 10:19:13;;;;;;;5.25;2.88;;;;;;;23.33;100.00;101041.66;6243826;28;20041;-91
2023/06/06 10:22:18;;;;;;;5.32;2.97;;;;;;;23.73;99.29;101047.22;6260927;28;20116;-90
2023/06/06 10:25:20;;;;;;;5.88;2.97;;;;;;;23.99;91.99;101045.69;6250592;28;20481;-90
2023/06/06 10:28:28;;;;;;;7.07;3.05;;;;;;;24.12;87.72;101047.56;6258200;28;20402;-91
2023/06/06 10:31:45;;;;;;;4.65;2.85;;;;;;;24.12;95.87;101042.28;6251041;28;20531;-91
2023/06/06 10:34:49;;;;;;;5.45;3.03;;;;;;;24.17;100.00;101039.88;6244809;28;20053;-91
2023/06/06 10:38:09;;;;;;;3.75;2.83;;;;;;;24.12;95.92;101035.16;6250843;28;20192;-90
2023/06/06 10:41:16;;;;;;;;;;;;;;;23.95;95.50;101037.34;6250849;28;20056;-91
2023/06/06 10:44:35;;;;;;;6.22;3.13;;;;;;;23.76;100.00;101028.31;6243616;28;19925;-90
2023/06/06 10:47:40;;;;;;;4.85;3.33;;;;;;;23.81;100.00;101033.81;6241310;28;20041;-91
2023/06/06 10:50:53;;;;;;;5.95;3.17;;;;;;;23.78;100.00;101028.94;6251942;28;20036;-91
2023/06/06 10:54:22;;;;;;;3.88;2.75;;;;;;;23.73;100.00;101028.72;6242260;28;20525;-91
2023/06/06 10:57:24;;;;;;;10.75;3.30;;;;;;;23.80;100.00;101031.38;6260032;28;20040;-90
2023/06/06 11:00:26;;;;;;;8.70;3.13;;;;;;;24.09;100.00;101032.91;6253804;28;20443;-91
2023/06/06 11:03:40;;;;;;;5.97;3.15;;;;;;;24.38;100.00;101031.00;6251303;28;20124;-91
2023/06/06 11:06:42;;;;;;;5.13;3.55;;;;;;;24.56;100.00;101033.09;6239014;28;20048;-91
2023/06/06 11:09:48;;;;;;;6.28;3.75;;;;;;;24.75;100.00;101027.00;6250171;28;20112;-91
2023/06/06 11:12:51;;;;;;;5.28;3.40;;;;;;;24.90;100.00;101024.16;6248021;28;20040;-91
2023/06/06 11:15:56;;;;;;;6.32;3.10;;;;;;;25.15;100.00;101030.47;6250097;28;20094;-91
2023/06/06 11:19:03;;;;;;;6.07;3.47;;;;;;;25.42;98.82;101030.47;6257533;28;20076;-91
2023/06/06 11:22:05;;;;;;;4.63;3.38;;;;;;;25.62;100.00;101025.13;6255107;28;20146;-91
2023/06/06 11:25:10;;;;;;;5.45;3.63;;;;;;;25.79;100.00;101028.13;6256617;28;20107;-91
2023/06/06 11:28:12;;;;;;;5.00;3.90;;;;;;;26.21;100.00;101023.28;6252243;28;20072;-91
2023/06/06 11:31:19;;;;;;;6.07;3.42;;;;;;;26.71;100.00;101017.25;6245938;28;20045;-91
2023/06/06 11:34:22;;;;;;;5.18;3.50;;;;;;;27.19;97.20;101017.50;6237904;28;20500;-91
2023/06/06 11:37:23;;;;;;;5.97;3.53;;;;;;;27.45;89.21;101026.22;6267974;28;20057;-91
2023/06/06 11:40:26;;;;;;;5.28;3.72;;;;;;;27.21;89.44;101020.75;6249526;28;20486;-91
2023/06/06 11:43:28;;;;;;;4.78;3.40;;;;;;;26.96;90.81;101018.09;6250633;28;20435;-91
2023/06/06 11:46:42;;;;;;;6.47;3.70;;;;;;;26.75;99.86;101011.28;6253888;28;20732;-91
2023/06/06 11:49:46;;;;;;;7.50;3.42;;;;;;;26.50;92.86;101015.75;6225589;28;20119;-91
2023/06/06 11:52:50;;;;;;;7.10;3.55;;;;;;;26.23;98.19;101007.94;6241779;28;20227;-91
2023/06/06 11:55:52;;;;;;;8.50;3.60;;;;;;;26.05;98.32;101010.50;6255008;28;20440;-91
2023/06/06 11:58:55;;;;;;;12.20;3.72;;;;;;;25.92;99.87;101001.56;6248293;28;20038;-91
2023/06/06 12:01:58;;;;;;;7.85;3.10;;;;;;;25.96;100.00;100997.47;6247587;28;20526;-91
2023/06/06 12:05:01;;;;;;;6.10;3.35;;;;;;;26.04;99.32;101008.84;6239654;28;20052;-91
2023/06/06 12:08:04;;;;;;;6.97;3.13;;;;;;;26.29;100.00;101004.44;6250999;28;20073;-89
2023/06/06 12:11:26;;;;;;;5.22;3.08;;;;;;;26.67;100.00;101000.94;6244689;28;20049;-90
2023/06/06 12:14:30;;;;;;;6.43;3.50;;;;;;;26.91;99.73;101001.97;6238618;28;20432;-90
2023/06/06 12:17:31;;;;;;;6.65;3.10;;;;;;;27.07;92.84;101001.41;6238946;28;20574;-90
2023/06/06 12:20:33;;;;;;;6.22;3.60;;;;;;;27.22;94.39;101008.25;6228913;28;20049;-90
2023/06/06 12:23:36;;;;;;;5.82;2.90;;;;;;;27.46;85.84;101002.06;6243955;28;20068;-90
2023/06/06 12:27:05;;;;;;;5.82;2.88;;;;;;;27.79;89.00;101002.72;6252359;28;20570;-90
2023/06/06 12:30:08;;;;;;;7.03;3.13;;;;;;;27.84;74.73;101000.22;6250091;28;20083;-90
2023/06/06 12:33:12;;;;;;;6.05;3.35;;;;;;;27.79;70.83;100997.41;6240297;28;20056;-90
2023/06/06 12:36:19;;;;;;;6.38;3.15;;;;;;;27.59;70.39;101001.13;6245442;28;20037;-90
2023/06/06 12:39:24;;;;;;;4.43;3.40;;;;;;;27.37;71.13;100997.28;6238328;28;20603;-90
2023/06/06 12:42:28;;;;;;;4.25;3.50;;;;;;;27.09;77.13;100995.88;6247932;28;20115;-90
2023/06/06 12:45:34;;;;;;;3.65;2.97;;;;;;;26.92;76.60;100997.47;6245015;28;20068;-90
2023/06/06 12:48:36;;;;;;;7.10;3.13;;;;;;;26.75;77.47;100998.00;6226890;28;20214;-90
2023/06/06 12:51:39;;;;;;;8.25;3.28;;;;;;;26.66;84.53;100994.03;6250661;28;20151;-90
2023/06/06 12:54:41;;;;;;;3.45;3.03;;;;;;;26.64;77.17;100996.06;6249363;28;20503;-90
2023/06/06 12:57:50;;;;;;;3.83;2.83;;;;;;;26.53;74.65;100999.41;6247835;28;20047;-90
2023/06/06 13:00:52;;;;;;;3.20;2.50;;;;;;;26.45;81.69;100981.06;6251954;28;20415;-90
2023/06/06 13:03:54;;;;;;;4.25;3.00;;;;;;;26.46;77.19;100988.81;6236714;28;20551;-90
2023/06/06 13:07:07;;;;;;;4.70;3.05;;;;;;;26.47;77.82;100984.31;6227317;28;20048;-90
2023/06/06 13:10:11;;;;;;;6.03;3.20;;;;;;;26.45;72.23;100981.06;6245618;28;20419;-90
2023/06/06 13:13:13;;;;;;;5.50;3.83;;;;;;;26.47;78.46;100985.13;6202960;28;1158598;-90
2023/06/06 13:16:16;;;;;;;4.75;3.15;;;;;;;26.46;79.56;100983.50;6250824;28;20514;-90
2023/06/06 13:19:22;;;;;;;5.57;3.53;;;;;;;26.42;78.78;100982.31;6243652;28;20151;-91
2023/06/06 13:22:25;;;;;;;3.95;3.20;;;;;;;26.29;78.73;100980.56;6244155;28;20033;-90
2023/06/06 13:25:30;;;;;;;6.32;3.28;;;;;;;26.27;79.27;100976.50;6248253;28;20041;-90
2023/06/06 13:28:32;;;;;;;6.20;3.80;;;;;;;26.33;76.37;100975.63;6233363;28;20404;-90
2023/06/06 13:31:42;;;;;;;6.18;3.90;;;;;;;26.27;78.00;100974.66;6236749;28;20466;-90
2023/06/06 13:34:47;;;;;;;5.20;3.50;;;;;;;26.34;79.53;100974.63;6238118;28;20045;-90
2023/06/06 13:37:49;;;;;;;4.30;3.45;;;;;;;26.53;95.27;100972.84;6245346;28;20044;-90
2023/06/06 13:40:55;;;;;;;3.97;3.35;;;;;;;26.79;86.74;100971.84;6243297;28;20643;-90
2023/06/06 13:43:59;;;;;;;6.75;3.75;;;;;;;26.95;83.18;100973.13;6236982;28;20503;-90
2023/06/06 13:47:02;;;;;;;6.35;3.65;;;;;;;27.11;75.01;100972.56;6254943;28;20052;-90
2023/06/06 13:50:06;;;;;;;5.28;3.25;;;;;;;27.15;64.98;100965.75;6235895;28;20036;-90
2023/06/06 13:53:10;;;;;;;5.38;3.38;;;;;;;26.79;63.31;100963.88;6240020;28;20172;-90
2023/06/06 13:56:15;;;;;;;6.00;3.33;;;;;;;26.34;60.23;100959.50;6240440;28;20407;-90
2023/06/06 13:59:17;;;;;;;5.60;3.03;;;;;;;26.04;58.71;100966.41;6251223;28;20040;-90
2023/06/06 14:02:21;;;;;;;3.70;2.95;;;;;;;25.72;69.60;100966.34;6243365;28;20388;-90
2023/06/06 14:05:23;;;;;;;4.93;3.20;;;;;;;25.49;76.14;100969.47;6246550;28;20188;-90